Terminal Aerodrome Forecast
Issued by NWS

Home | Current Version | Previous Version | Text Only | Print | Product List | Glossary On
Versions: 1 2 3 4 5 6 7 8 9 10 11 12 13 14 15 16 17 18
000
FTAK31 PAFA 212339
TAFATA
TAF
PATA 212339Z 2200/2224 10008KT 2SM -SN BR SCT007 BKN015 OVC025
      TEMPO 2200/2203 1SM -SN BR OVC015
     FM221500 22008KT 6SM -SHSN BKN015 OVC030
     FM222000 09007KT 1 1/2SM -SN BR OVC015=

USA.gov is the U.S. government's official web portal to all federal, state and local government web resources and services.